KTTN/TTN METAR and TAF weather

Enter ICAO airport designator
Station Type Date Time Source
KTTN METAR 2020/09/27 00:53 UTC NOAA

KTTN 270053Z 12005KT 10SM FEW013 SCT110 20/19 A3002 RMK AO2 SLP159 T02000189


Station Type Date Time Source
KTTN Decoded METAR 2020/09/27 00:53 UTC NOAA

TRENTON MERCER COUNTY AIRPORT , NJ, United States (KTTN) 40-17N 074-49W 59M
Sep 26, 2020 - 08:53 PM EDT / 2020.09.27 0053 UTC
Wind: from the ESE (120 degrees) at 6 MPH (5 KT):0
Visibility: 10 mile(s):0
Sky conditions: partly cloudy
Temperature: 68.0 F (20.0 C)
Dew Point: 66.0 F (18.9 C)
Relative Humidity: 93%
Pressure (altimeter): 30.02 in. Hg (1016 hPa)
ob: KTTN 270053Z 12005KT 10SM FEW013 SCT110 20/19 A3002 RMK AO2 SLP159 T02000189
cycle: 1

Station Type Date Time Source
KTTN TAF 2020/09/27 01:45 UTC NOAA

TAF
AMD KTTN 270041Z 2701/2724 12008KT P6SM OVC015
FM270300 VRB02KT 5SM -DZ BR OVC008
FM270600 VRB02KT 1SM -DZ BR OVC003
FM271400 13005KT 5SM -DZ BR OVC008
FM271600 15007KT P6SM OVC015
FM272000 15007KT P6SM OVC025

Example: see airport list